Terminal Aerodrome Forecast
Issued by NWS

Current Version | Previous Version | Text Only | Print | Product List | Glossary On
Versions: 1 2 3 4 5 6 7 8 9 10 11 12 13 14 15 16 17 18 19 20 21 22 23 24 25 26 27 28 29 30 31 32 33 34 35 36 37 38 39 40 41 42 43 44 45 46 47 48 49 50
000
FTUS44 KHGX 302102 AAA
TAFIAH
TAF AMD
KIAH 302102Z 3021/3124 00000KT P6SM FEW030 SCT140 SCT250
     FM310100 16005KT P6SM SCT250
     FM310600 VRB03KT P6SM FEW015 SCT250
     FM310900 00000KT P6SM BKN015
     FM311500 16005KT P6SM SCT030
     FM312000 14009KT P6SM VCSH BKN050=

USA.gov is the U.S. government's official web portal to all federal, state and local government web resources and services.